Elliot Chaparral Reserve, California Weather observations

Data are for 10 minute period ending at time listed.
 Day   Time   Solar   Ave.   Ave.  Ave.  Vector  Max.   Baro.   Total    
  of    of     Rad.   Air    Rel.  Wind   Wind   Wind  Press.  Precip.   
Year   Day            Temp.  Hum.  Speed  Dir.   Gust                    
2014   (PST)  Kw/m2    F      %     mph   deg.    mph    mb.     in.     
-------------------------------------------------------------------------
 297   19:30   0.00   78.6    18    5.5    80     6.9   986.1    0.00 
 297   19:40   0.00   78.7    19    4.9    74     5.8   986.1    0.00 
 297   19:50   0.00   78.8    20    4.8    76     5.8   986.2    0.00 
 297   20:00   0.00   78.9    20    4.3    79     5.0   986.3    0.00 
 297   20:10   0.00   78.5    21    4.6    81     5.8   986.3    0.00 
 297   20:20   0.00   77.8    22    4.6    75     6.2   986.4    0.00 
 297   20:30   0.00   77.6    22    4.3    77     6.6   986.5    0.00 
 297   20:40   0.00   77.7    22    4.5    85     6.8   986.6    0.00 
 297   20:50   0.00   77.0    23    2.8    88     6.4   986.7    0.00 
 297   21:00   0.00   76.5    23    2.7   107     4.3   986.8    0.00 
 297   21:10   0.00   76.9    22    4.1    94     6.0   986.8    0.00 
 297   21:20   0.00   77.4    22    3.4    91     4.7   986.8    0.00 
 297   21:30   0.00   77.9    22    3.1    82     4.6   986.8    0.00 
 297   21:40   0.00   77.9    22    3.5    81     4.8   986.9    0.00 
 297   21:50   0.00   77.6    22    3.1    91     4.4   987.0    0.00 
 297   22:00   0.00   76.3    23    2.3   264     3.8   987.0    0.00 
 297   22:10   0.00   75.5    24    1.3   176     1.9   987.0    0.00 
 297   22:20   0.00   75.0    24    2.0   175     3.4   987.0    0.00 
 297   22:30   0.00   74.0    26    2.5   254     3.7   987.1    0.00 
 297   22:40   0.00   73.1    28    2.5   263     3.0   987.2    0.00 
 297   22:50   0.00   73.3    28    3.5   239     5.5   987.3    0.00 
 297   23:00   0.00   70.0    37    4.7   284     6.4   987.5    0.00 
 297   23:10   0.00   68.1    54    4.4   281     6.4   987.7    0.00 
 297   23:20   0.00   67.0    60    3.6   326     5.3   987.5    0.00 
 297   23:30   0.00   67.0    72    4.5   344     5.6   987.5    0.00 
 297   23:40   0.00   66.8    74    4.6   327     5.9   987.5    0.00 
 297   23:50   0.00   66.3    74    5.5   324     7.2   987.5    0.00 
 298    0:00   0.00   66.0    74    5.5   326     6.7   987.6    0.00 
 298    0:10   0.00   65.8    77    5.4   339     7.2   987.7    0.00 
 298    0:20   0.00   65.6    82    5.4   336     7.2   987.7    0.00 
 298    0:30   0.00   65.1    85    4.6   349     5.6   987.7    0.00 
 298    0:40   0.00   65.1    87    5.1   354     6.1   987.7    0.00 
 298    0:50   0.00   65.3    88    6.0     6     6.7   987.7    0.00 
 298    1:00   0.00   65.2    88    6.0    10     7.2   987.6    0.00 
 298    1:10   0.00   65.2    85    5.5     8     6.6   987.6    0.00 
 298    1:20   0.00   65.2    83    6.6     2     7.5   987.5    0.00 
 298    1:30   0.00   65.5    84    6.4    15     7.9   987.4    0.00 
 298    1:40   0.00   65.2    87    5.1   352     7.4   987.4    0.00 
 298    1:50   0.00   64.6    88    5.1   359     6.7   987.3    0.00 
 298    2:00   0.00   64.4    88    5.7    24     7.7   987.1    0.00 
 298    2:10   0.00   64.2    80    9.2    17    11.5   986.8    0.00 
 298    2:20   0.00   64.5    75    8.2     9    10.6   986.7    0.00 
 298    2:30   0.00   64.2    76    4.5   340     6.0   986.9    0.00 
 298    2:40   0.00   64.2    74    5.6    12     7.3   986.8    0.00 
 298    2:50   0.00   64.3    72    5.3    24     6.3   986.7    0.00 
 298    3:00   0.00   64.7    71    4.5    36     6.1   986.6    0.00 
 298    3:10   0.00   64.3    70    5.3    61     7.0   986.5    0.00 
 298    3:20   0.00   63.8    70    7.0    61    10.2   986.3    0.00 
 298    3:30   0.00   65.0    62    8.4    59    11.5   986.2    0.00 
 298    3:40   0.00   65.4    63    7.8    64     9.9   986.2    0.00 
 298    3:50   0.00   65.4    64    7.1    79     8.9   986.4    0.00 
 298    4:00   0.00   65.7    64    7.0    76     9.0   986.4    0.00 
 298    4:10   0.00   66.3    60    6.7    82     9.9   986.5    0.00 
 298    4:20   0.00   65.9    57    5.8    75     9.6   986.5    0.00 
 298    4:30   0.00   66.4    54    5.0    67     7.2   986.6    0.00 
 298    4:40   0.00   67.1    49    5.4    73     7.9   986.7    0.00 
 298    4:50   0.00   66.6    49    5.2    78     7.1   986.8    0.00 
 298    5:00   0.00   66.2    48    6.5    77    10.0   986.7    0.00 
 298    5:10   0.00   66.2    45    5.9    71     9.1   986.8    0.00 
 298    5:20   0.00   67.4    40    5.4    70     7.7   987.0    0.00 
 298    5:30   0.00   67.1    40    6.7    71     9.4   986.8    0.00 
 298    5:40   0.00   67.5    38    6.2    76     8.3   986.7    0.00 
 298    5:50   0.00   68.4    36    6.4    94     9.0   986.8    0.00 
 298    6:00   0.00   68.6    35    6.5   100    10.6   986.9    0.00 
 298    6:10   0.00   68.9    35    7.0    99    11.2   987.0    0.00 
 298    6:20   0.03   69.2    34    4.9    84     8.0   987.2    0.00 
 298    6:30   0.05   70.5    32    3.0    88     3.9   987.3    0.00 
 298    6:40   0.08   71.7    31    3.0    78     3.9   987.4    0.00 
 298    6:50   0.09   72.8    30    2.2    84     3.9   987.5    0.00 
 298    7:00   0.08   70.6    35    3.2   255     5.3   987.7    0.00 
 298    7:10   0.07   67.8    43    3.9   289     5.0   987.9    0.00 
 298    7:20   0.11   67.4    49    3.9   311     4.9   988.1    0.00 
 298    7:30   0.11   67.2    52    5.5   313     9.3   988.4    0.00 
 298    7:40   0.18   66.4    56    7.2   297    10.0   988.6    0.00 
 298    7:50   0.23   67.7    60    8.3   287    11.7   988.8    0.00 
 298    8:00   0.26   68.3    67    6.6   292    10.1   989.0    0.00 
 298    8:10   0.21   68.6    70    4.1   298     6.4   989.1    0.00 
 298    8:20   0.31   69.6    69    4.7   289     7.5   989.1    0.00 
 298    8:30   0.29   69.7    70    4.0   270     6.8   989.3    0.00 
 298    8:40   0.41   70.7    71    4.7   282     8.0   989.3    0.00 
 298    8:50   0.36   70.6    71    5.5   284     9.2   989.4    0.00 
 298    9:00   0.38   71.0    70    3.6   280     6.6   989.4    0.00 
 298    9:10   0.39   72.8    66    1.2   119     3.0   989.2    0.00 
 298    9:20   0.39   74.0    62    1.9   208     3.7   989.1    0.00 
 298    9:30   0.42   74.1    59    2.2   167     6.0   989.0    0.00 
 298    9:40   0.47   75.5    50    4.5   207     9.1   988.9    0.00 
 298    9:50   0.50   75.8    48    4.9   216     8.3   988.9    0.00 
 298   10:00   0.58   76.9    44    4.5   200     8.8   988.8    0.00 
 298   10:10   0.64   77.8    42    5.1   222     9.8   988.6    0.00 
 298   10:20   0.61   78.1    42    6.4   218    12.3   988.6    0.00 
 298   10:30   0.66   78.5    39    5.5   199     8.6   988.5    0.00 
 298   10:40   0.67   79.1    37    5.3   248     9.0   988.4    0.00 
 298   10:50   0.67   79.5    37    3.7   229     7.2   988.2    0.00 
 298   11:00   0.68   81.2    43    5.5   236    10.0   988.1    0.00 
 298   11:10   0.68   80.4    43    6.6   238    10.3   987.9    0.00 
 298   11:20   0.67   81.4    40    5.9   229    11.0   987.8    0.00 
 298   11:30   0.69   81.3    40    7.3   240    12.3   987.6    0.00 
 298   11:40   0.69   81.1    43    9.2   244    18.8   987.6    0.00 
 298   11:50   0.69   80.4    45    7.2   251    12.9   987.5    0.00 
 298   12:00   0.69   80.9    44    9.3   262    15.3   987.4    0.00 
 298   12:10   0.68   80.6    50   12.3   275    17.9   987.4    0.00 
 298   12:20   0.67   78.7    58   14.3   283    19.0   987.3    0.00 
 298   12:30   0.67   78.0    59   12.2   270    15.9   987.3    0.00 
 298   12:40   0.66   77.3    60   11.4   273    15.8   987.3    0.00 
 298   12:50   0.64   76.9    61   13.1   292    17.9   987.2    0.00 
 298   13:00   0.63   76.7    60   11.8   286    17.9   987.2    0.00 
 298   13:10   0.61   75.8    60   13.8   279    17.5   987.2    0.00 
 298   13:20   0.60   75.8    59   16.1   282    21.0   987.2    0.00 
 298   13:30   0.58   73.8    64   16.0   293    20.5   987.2    0.00 
 298   13:40   0.56   73.2    66   15.1   291    20.6   987.3    0.00 
 298   13:50   0.54   74.1    62   13.2   289    17.8   987.3    0.00 
 298   14:00   0.52   73.5    62   13.9   288    19.4   987.3    0.00 
 298   14:10   0.50   73.5    59   14.1   287    19.7   987.3    0.00 
 298   14:20   0.47   73.7    61   13.6   286    18.1   987.3    0.00 
 298   14:30   0.44   74.0    59   11.6   309    16.2   987.4    0.00 
 298   14:40   0.41   73.7    59   11.2   303    16.6   987.3    0.00 
 298   14:50   0.38   73.4    60    9.0   310    14.2   987.1    0.00 
 298   15:00   0.35   74.1    60    7.8   324    13.7   987.0    0.00 
 298   15:10   0.32   73.6    62    7.7   325    12.1   987.0    0.00 
 298   15:20   0.29   73.8    57    9.3   306    12.7   986.9    0.00 
 298   15:30   0.26   73.4    60    7.9   307    11.1   986.8    0.00 
 298   15:40   0.23   72.9    59    8.8   302    12.2   986.7    0.00 
 298   15:50   0.20   73.2    56    7.9   290    11.4   986.8    0.00 
 298   16:00   0.16   73.1    58    9.4   280    12.4   986.8    0.00 
 298   16:10   0.13   72.6    60    9.7   301    13.1   986.8    0.00 
 298   16:20   0.10   71.7    63    9.1   299    12.6   986.9    0.00 
 298   16:30   0.08   70.6    63    9.2   308    11.6   986.9    0.00 
 298   16:40   0.05   69.8    69    8.8   299    10.7   986.9    0.00 
 298   16:50   0.03   69.1    74    7.4   298    10.3   986.8    0.00 
 298   17:00   0.01   67.9    77    7.1   293     9.7   986.9    0.00 
 298   17:10   0.00   67.0    77    5.6   310     8.2   987.0    0.00 
 298   17:20   0.00   66.4    80    6.6   308     8.6   987.1    0.00 
 298   17:30   0.00   65.9    81    5.2   317     7.6   987.1    0.00 
 298   17:40   0.00   65.4    82    3.8   315     5.8   987.1    0.00 
 298   17:50   0.00   65.1    83    3.1   320     6.7   987.1    0.00 
 298   18:00   0.00   65.0    84    5.7   312     8.1   987.2    0.00 
 298   18:10   0.00   64.8    85    5.8   301     7.0   987.3    0.00 
 298   18:20   0.00   64.3    86    4.8   305     8.3   987.3    0.00 
 298   18:30   0.00   64.1    87    6.8   312     8.4   987.4    0.00 
 298   18:40   0.00   64.1    87    6.3   315     8.6   987.4    0.00 
 298   18:50   0.00   63.7    88    5.6   326     7.2   987.4    0.00 
 298   19:00   0.00   63.6    89    5.6   333     6.9   987.5    0.00 
 298   19:10   0.00   63.4    89    5.2   334     7.4   987.6    0.00 
 298   19:20   0.00   63.3    90    5.7   330     7.1   987.7    0.00 

Return to Elliot Chaparral Reserve graphs page.


Western Regional Climate Center,wrcc@dri.edu